createdAt,value
2022-09-23T00:02:37.214Z,12.12
2022-09-23T00:17:53.119Z,11.88
2022-09-23T00:33:11.085Z,11.83
2022-09-23T00:48:28.057Z,11.72
2022-09-23T01:03:45.037Z,11.61
2022-09-23T01:19:01.015Z,11.5
2022-09-23T01:19:42.903Z,11.5
2022-09-23T01:34:19.025Z,11.4
2022-09-23T01:49:35.007Z,11.22
2022-09-23T02:04:50.946Z,11.1
2022-09-23T02:20:06.959Z,11.18
2022-09-23T02:35:23.891Z,10.87
2022-09-23T02:50:40.904Z,10.85
2022-09-23T03:05:57.850Z,10.52
2022-09-23T03:21:13.859Z,10.32
2022-09-23T03:36:30.794Z,10.22
2022-09-23T03:51:46.805Z,10.25
2022-09-23T04:07:02.780Z,10.09
2022-09-23T04:22:18.765Z,9.95
2022-09-23T04:37:35.709Z,9.86
2022-09-23T04:52:52.722Z,9.76
2022-09-23T05:08:09.698Z,9.77
2022-09-23T05:23:25.684Z,9.55
2022-09-23T05:38:42.622Z,9.67
2022-09-23T05:53:58.633Z,9.65
2022-09-23T06:09:14.608Z,10.09
2022-09-23T06:24:31.869Z,11
2022-09-23T06:39:49.555Z,12
2022-09-23T06:55:06.498Z,12.14
2022-09-23T07:10:22.502Z,13
2022-09-23T07:25:38.441Z,13.85
2022-09-23T07:40:55.454Z,14.5
2022-09-23T07:56:11.390Z,14.93
2022-09-23T08:11:27.389Z,15.48
2022-09-23T08:26:44.326Z,16.16
2022-09-23T08:42:02.342Z,15.73
2022-09-23T08:57:19.267Z,16.46
2022-09-23T09:12:35.270Z,17.59
2022-09-23T09:27:51.221Z,18.55
2022-09-23T09:43:10.210Z,18.61
2022-09-23T09:58:27.096Z,19.23
2022-09-23T10:13:44.088Z,20.17
2022-09-23T10:29:00.087Z,20.33
2022-09-23T10:44:17.023Z,20.82
2022-09-23T10:59:33.009Z,21.73
2022-09-23T11:14:48.940Z,22.65
2022-09-23T11:30:04.938Z,22.67
2022-09-23T11:45:21.885Z,23.64
2022-09-23T12:00:39.392Z,23.45
2022-09-23T12:15:55.826Z,24.14
2022-09-23T12:31:11.903Z,24.05
2022-09-23T12:46:28.759Z,24.92
2022-09-23T13:01:44.977Z,25.23
2022-09-23T13:17:00.757Z,25.98
2022-09-23T13:32:17.661Z,26.01
2022-09-23T13:47:35.639Z,25.25
2022-09-23T14:02:51.607Z,24.76
2022-09-23T14:18:07.580Z,24.03
2022-09-23T14:33:24.547Z,24.28
2022-09-23T14:48:42.519Z,24.5
2022-09-23T15:03:59.492Z,24.87
2022-09-23T15:19:15.453Z,24.73
2022-09-23T15:34:32.419Z,24.23
2022-09-23T15:49:48.426Z,24.02
2022-09-23T15:50:34.282Z,24.02
2022-09-23T16:05:05.370Z,23.42
2022-09-23T16:20:22.376Z,22.98
2022-09-23T16:35:40.297Z,22.38
2022-09-23T16:50:57.302Z,22.13
2022-09-23T17:06:13.236Z,21.88
2022-09-23T17:21:29.246Z,21.48
2022-09-23T17:36:46.205Z,21.4
2022-09-23T17:52:02.189Z,21.27
2022-09-23T18:07:18.152Z,21.01
2022-09-23T18:22:35.132Z,20.42
2022-09-23T18:37:53.089Z,20.19
2022-09-23T18:53:10.059Z,19.75
2022-09-23T19:08:26.024Z,19.62
2022-09-23T19:23:42.003Z,19.29
2022-09-23T19:38:58.969Z,19.1
2022-09-23T19:54:14.938Z,18.79
2022-09-23T20:09:30.899Z,18.63
2022-09-23T20:24:47.847Z,18.48
2022-09-23T20:40:06.915Z,18.45
2022-09-23T20:55:22.793Z,18.39
2022-09-23T21:10:38.803Z,18.34
2022-09-23T21:25:54.725Z,18.26
2022-09-23T21:41:11.777Z,18.17
2022-09-23T21:56:28.665Z,18.1
2022-09-23T22:11:45.669Z,18
2022-09-23T22:27:01.609Z,17.94
2022-09-23T22:42:18.610Z,17.95
2022-09-23T22:57:34.543Z,17.88
2022-09-23T23:12:50.551Z,17.85
2022-09-23T23:28:06.491Z,17.38
2022-09-23T23:43:23.489Z,16.97
2022-09-23T23:58:40.429Z,16.78
